createdAt,value
2019-03-21T00:01:23.317Z,99.10
2019-03-21T00:03:55.621Z,99.20
2019-03-21T00:06:25.318Z,99.80
2019-03-21T00:08:55.104Z,99.30
2019-03-21T00:11:58.615Z,99.70
2019-03-21T00:14:55.198Z,99.80
2019-03-21T00:17:27.859Z,99.90
2019-03-21T00:19:57.689Z,99.90
2019-03-21T00:22:27.365Z,99.90
2019-03-21T00:24:57.084Z,99.90
2019-03-21T00:27:26.867Z,99.90
2019-03-21T00:29:56.583Z,99.90
2019-03-21T00:32:26.347Z,99.90
2019-03-21T00:34:56.042Z,99.90
2019-03-21T00:37:25.755Z,99.90
2019-03-21T00:39:55.536Z,99.90
2019-03-21T00:42:25.200Z,99.90
2019-03-21T00:44:54.899Z,99.90
2019-03-21T00:47:24.656Z,99.90
2019-03-21T00:49:54.545Z,99.90
2019-03-21T00:52:24.235Z,99.90
2019-03-21T00:54:53.971Z,99.90
2019-03-21T00:57:23.707Z,99.90
2019-03-21T00:59:53.387Z,99.90
2019-03-21T01:02:23.504Z,99.90
2019-03-21T01:04:53.371Z,99.90
2019-03-21T01:07:23.204Z,99.90
2019-03-21T01:09:52.921Z,99.90
2019-03-21T01:12:22.693Z,99.90
2019-03-21T01:14:52.384Z,99.90
2019-03-21T01:17:22.107Z,99.90
2019-03-21T01:19:51.876Z,99.90
2019-03-21T01:22:21.604Z,99.90
2019-03-21T01:24:51.391Z,99.90
2019-03-21T01:27:21.182Z,99.90
2019-03-21T01:29:50.882Z,99.90
2019-03-21T01:32:20.665Z,99.90
2019-03-21T01:34:50.439Z,99.90
2019-03-21T01:37:20.241Z,99.90
2019-03-21T01:39:50.069Z,99.90
2019-03-21T01:42:19.915Z,99.90
2019-03-21T01:44:49.599Z,99.90
2019-03-21T01:47:19.536Z,99.90
2019-03-21T01:49:49.194Z,99.90
2019-03-21T01:52:18.969Z,99.90
2019-03-21T01:54:48.649Z,99.90
2019-03-21T01:57:18.412Z,99.90
2019-03-21T01:59:48.204Z,99.90
2019-03-21T02:02:17.953Z,99.90
2019-03-21T02:04:47.653Z,99.90
2019-03-21T02:07:17.436Z,99.90
2019-03-21T02:09:47.248Z,99.90
2019-03-21T02:12:16.924Z,99.90
2019-03-21T02:14:52.063Z,99.90
2019-03-21T02:17:18.112Z,99.90
2019-03-21T02:19:47.814Z,99.90
2019-03-21T02:22:17.500Z,99.90
2019-03-21T02:24:47.281Z,99.90
2019-03-21T02:27:16.915Z,99.90
2019-03-21T02:29:46.692Z,99.90
2019-03-21T02:32:18.672Z,99.90
2019-03-21T02:34:48.696Z,99.90
2019-03-21T02:37:18.413Z,99.90
2019-03-21T02:39:58.838Z,99.90
2019-03-21T02:42:19.632Z,99.90
2019-03-21T02:44:49.414Z,99.90
2019-03-21T02:47:19.167Z,99.90
2019-03-21T02:49:48.933Z,99.90
2019-03-21T02:52:18.610Z,99.90
2019-03-21T02:54:48.317Z,99.90
2019-03-21T02:57:18.103Z,99.90
2019-03-21T02:59:47.797Z,99.90
2019-03-21T03:02:17.475Z,99.90
2019-03-21T03:04:47.229Z,99.90
2019-03-21T03:07:16.925Z,99.90
2019-03-21T03:09:46.730Z,99.90
2019-03-21T03:12:16.518Z,99.90
2019-03-21T03:14:46.332Z,99.90
2019-03-21T03:17:17.116Z,99.90
2019-03-21T03:19:46.940Z,99.90
2019-03-21T03:22:16.595Z,99.90
2019-03-21T03:24:46.348Z,99.90
2019-03-21T03:27:16.151Z,99.90
2019-03-21T03:29:45.964Z,99.90
2019-03-21T03:32:15.731Z,99.90
2019-03-21T03:34:45.452Z,99.90
2019-03-21T03:37:15.233Z,99.90
2019-03-21T03:39:44.995Z,99.90
2019-03-21T03:42:14.703Z,99.90
2019-03-21T03:44:44.373Z,99.90
2019-03-21T03:47:14.076Z,99.90
2019-03-21T03:49:43.734Z,99.90
2019-03-21T03:52:13.444Z,99.90
2019-03-21T03:54:43.113Z,99.90
2019-03-21T03:57:12.885Z,99.90
2019-03-21T03:59:42.542Z,99.90
2019-03-21T04:02:12.274Z,99.90
2019-03-21T04:04:42.054Z,99.90
2019-03-21T04:07:11.803Z,99.90
2019-03-21T04:09:41.565Z,99.90
2019-03-21T04:12:11.245Z,99.90
2019-03-21T04:14:40.929Z,99.90
2019-03-21T04:17:10.623Z,99.90
2019-03-21T04:19:40.311Z,99.90
2019-03-21T04:22:11.320Z,99.90
2019-03-21T04:24:41.049Z,99.90
2019-03-21T04:27:10.831Z,99.90
2019-03-21T04:29:40.508Z,99.90
2019-03-21T04:32:10.201Z,99.90
2019-03-21T04:34:39.888Z,99.90
2019-03-21T04:37:09.613Z,99.90
2019-03-21T04:39:39.394Z,99.90
2019-03-21T04:42:09.079Z,99.90
2019-03-21T04:44:38.829Z,99.90
2019-03-21T04:47:08.529Z,99.90
2019-03-21T04:49:38.217Z,99.90
2019-03-21T04:52:07.967Z,99.90
2019-03-21T04:54:37.701Z,99.90
2019-03-21T04:57:07.558Z,99.90
2019-03-21T04:59:37.357Z,99.90
2019-03-21T05:02:07.022Z,99.90
2019-03-21T05:04:36.777Z,99.90
2019-03-21T05:07:06.590Z,99.90
2019-03-21T05:09:36.401Z,99.90
2019-03-21T05:12:06.131Z,99.90
2019-03-21T05:14:35.907Z,99.90
2019-03-21T05:17:05.638Z,99.90
2019-03-21T05:19:35.334Z,99.90
2019-03-21T05:22:05.053Z,99.90
2019-03-21T05:24:34.840Z,99.90
2019-03-21T05:27:04.532Z,99.90
2019-03-21T05:29:34.422Z,99.90
2019-03-21T05:32:04.087Z,99.90
2019-03-21T05:34:33.791Z,99.90
2019-03-21T05:37:03.549Z,99.90
2019-03-21T05:39:33.315Z,99.90
2019-03-21T05:42:05.054Z,99.90
2019-03-21T05:44:38.515Z,99.90
2019-03-21T05:47:08.201Z,99.90
2019-03-21T05:49:37.923Z,99.90
2019-03-21T05:52:09.330Z,99.90
2019-03-21T05:54:39.144Z,99.90
2019-03-21T05:57:08.865Z,99.90
2019-03-21T05:59:38.580Z,99.90
2019-03-21T06:02:08.370Z,99.90
2019-03-21T06:04:38.034Z,99.90
2019-03-21T06:07:23.774Z,99.90
2019-03-21T06:09:53.472Z,99.90
2019-03-21T06:12:23.157Z,99.90
2019-03-21T06:14:58.712Z,99.90
2019-03-21T06:17:29.406Z,99.90
2019-03-21T06:20:54.081Z,99.90
2019-03-21T06:23:44.673Z,99.90
2019-03-21T06:26:34.534Z,99.90
2019-03-21T06:29:04.314Z,99.90
2019-03-21T06:31:34.127Z,99.90
2019-03-21T06:34:03.792Z,99.90
2019-03-21T06:36:33.535Z,99.90
2019-03-21T06:39:04.767Z,99.90
2019-03-21T06:41:34.458Z,99.90
2019-03-21T06:44:04.143Z,99.90
2019-03-21T06:46:33.816Z,99.90
2019-03-21T06:49:03.501Z,99.90
2019-03-21T06:51:33.280Z,99.90
2019-03-21T06:54:03.033Z,99.90
2019-03-21T06:56:33.001Z,99.90
2019-03-21T06:59:02.773Z,99.90
2019-03-21T07:01:32.476Z,99.90
2019-03-21T07:04:06.934Z,99.90
2019-03-21T07:06:33.950Z,99.90
2019-03-21T07:09:05.664Z,99.90
2019-03-21T07:11:35.483Z,99.90
2019-03-21T07:14:05.447Z,99.90
2019-03-21T07:16:35.154Z,99.90
2019-03-21T07:19:06.503Z,99.90
2019-03-21T07:21:36.289Z,99.90
2019-03-21T07:24:07.484Z,99.90
2019-03-21T07:26:37.552Z,99.90
2019-03-21T07:29:07.361Z,99.90
2019-03-21T07:31:37.121Z,99.90
2019-03-21T07:34:06.895Z,99.90
2019-03-21T07:36:36.649Z,99.90
2019-03-21T07:39:08.428Z,99.90
2019-03-21T07:41:38.238Z,99.90
2019-03-21T07:44:08.032Z,99.90
2019-03-21T07:46:37.760Z,98.70
2019-03-21T07:49:07.440Z,98.50
2019-03-21T07:51:37.126Z,97.50
2019-03-21T07:54:06.909Z,97.30
2019-03-21T07:56:36.577Z,96.90
2019-03-21T07:59:06.329Z,96.90
2019-03-21T08:01:35.999Z,96.00
2019-03-21T08:04:06.086Z,95.40
2019-03-21T08:06:35.864Z,95.90
2019-03-21T08:09:07.462Z,95.70
2019-03-21T08:11:38.580Z,95.70
2019-03-21T08:14:08.363Z,95.30
2019-03-21T08:16:38.080Z,94.30
2019-03-21T08:19:07.763Z,93.30
2019-03-21T08:21:37.472Z,93.40
2019-03-21T08:24:07.268Z,94.90
2019-03-21T08:26:37.068Z,94.00
2019-03-21T08:29:06.789Z,94.60
2019-03-21T08:31:36.480Z,93.40
2019-03-21T08:34:06.165Z,94.50
2019-03-21T08:36:35.880Z,92.70
2019-03-21T08:39:08.311Z,92.80
2019-03-21T08:41:38.293Z,91.40
2019-03-21T08:44:07.980Z,91.60
2019-03-21T08:46:37.777Z,92.50
2019-03-21T08:49:07.522Z,92.40
2019-03-21T08:51:37.256Z,90.50
2019-03-21T08:54:06.967Z,90.40
2019-03-21T08:56:36.730Z,91.20
2019-03-21T08:59:06.422Z,90.40
2019-03-21T09:01:36.298Z,90.80
2019-03-21T09:04:06.033Z,88.80
2019-03-21T09:06:35.786Z,88.90
2019-03-21T09:09:07.821Z,89.80
2019-03-21T09:11:37.997Z,90.60
2019-03-21T09:14:07.779Z,89.70
2019-03-21T09:16:37.552Z,90.30
2019-03-21T09:19:07.353Z,90.20
2019-03-21T09:21:37.030Z,90.20
2019-03-21T09:24:06.824Z,90.40
2019-03-21T09:26:36.765Z,90.30
2019-03-21T09:29:06.545Z,90.60
2019-03-21T09:31:36.261Z,90.00
2019-03-21T09:34:06.044Z,88.10
2019-03-21T09:36:35.896Z,87.90
2019-03-21T09:39:07.609Z,86.10
2019-03-21T09:41:37.612Z,85.10
2019-03-21T09:44:07.339Z,88.50
2019-03-21T09:46:37.364Z,88.00
2019-03-21T09:49:07.098Z,86.50
2019-03-21T09:51:36.871Z,87.50
2019-03-21T09:54:09.858Z,85.40
2019-03-21T09:56:38.038Z,84.20
2019-03-21T09:59:07.804Z,82.90
2019-03-21T10:01:37.888Z,81.30
2019-03-21T10:04:07.610Z,77.30
2019-03-21T10:06:37.361Z,78.40
2019-03-21T10:09:09.047Z,76.20
2019-03-21T10:11:38.767Z,76.10
2019-03-21T10:14:08.562Z,75.40
2019-03-21T10:16:38.295Z,73.40
2019-03-21T10:19:07.996Z,73.50
2019-03-21T10:21:43.327Z,76.90
2019-03-21T10:24:09.101Z,74.70
2019-03-21T10:26:38.908Z,70.60
2019-03-21T10:29:08.623Z,70.70
2019-03-21T10:31:38.305Z,71.80
2019-03-21T10:34:08.098Z,74.50
2019-03-21T10:36:37.984Z,71.60
2019-03-21T10:39:08.172Z,69.50
2019-03-21T10:41:37.872Z,66.30
2019-03-21T10:44:07.670Z,64.40
2019-03-21T10:46:37.463Z,66.20
2019-03-21T10:49:07.156Z,67.20
2019-03-21T10:51:36.853Z,62.70
2019-03-21T10:54:06.548Z,61.40
2019-03-21T10:56:36.233Z,60.80
2019-03-21T10:59:06.009Z,60.20
2019-03-21T11:01:35.701Z,58.90
2019-03-21T11:04:05.416Z,60.90
2019-03-21T11:06:35.336Z,60.00
2019-03-21T11:09:08.457Z,61.20
2019-03-21T11:11:38.254Z,65.80
2019-03-21T11:14:08.032Z,60.20
2019-03-21T11:16:37.754Z,61.40
2019-03-21T11:19:07.480Z,61.80
2019-03-21T11:21:37.167Z,54.30
2019-03-21T11:24:07.010Z,55.00
2019-03-21T11:26:36.728Z,52.80
2019-03-21T11:29:06.518Z,59.40
2019-03-21T11:31:36.224Z,58.10
2019-03-21T11:34:06.008Z,51.00
2019-03-21T11:36:38.482Z,48.90
2019-03-21T11:39:08.623Z,57.20
2019-03-21T11:41:38.321Z,56.20
2019-03-21T11:44:08.091Z,55.10
2019-03-21T11:46:37.914Z,56.30
2019-03-21T11:49:07.586Z,55.20
2019-03-21T11:51:37.524Z,56.00
2019-03-21T11:54:07.298Z,54.50
2019-03-21T11:56:37.086Z,57.50
2019-03-21T11:59:06.833Z,51.90
2019-03-21T12:01:36.589Z,54.40
2019-03-21T12:04:06.463Z,54.60
2019-03-21T12:06:36.138Z,54.90
2019-03-21T12:09:07.748Z,48.40
2019-03-21T12:11:37.638Z,55.30
2019-03-21T12:14:07.505Z,56.50
2019-03-21T12:16:37.270Z,52.60
2019-03-21T12:19:07.048Z,53.10
2019-03-21T12:21:36.759Z,49.90
2019-03-21T12:24:06.501Z,54.50
2019-03-21T12:26:36.184Z,49.10
2019-03-21T12:29:05.965Z,52.60
2019-03-21T12:31:42.874Z,53.10
2019-03-21T12:34:12.621Z,53.80
2019-03-21T12:36:42.420Z,50.70
2019-03-21T12:39:12.147Z,51.40
2019-03-21T12:41:44.776Z,51.80
2019-03-21T12:44:14.473Z,46.20
2019-03-21T12:46:44.231Z,46.20
2019-03-21T12:49:14.047Z,46.70
2019-03-21T12:51:45.752Z,52.00
2019-03-21T12:54:15.169Z,55.40
2019-03-21T12:56:44.940Z,50.10
2019-03-21T12:59:14.732Z,50.30
2019-03-21T13:01:44.510Z,47.70
2019-03-21T13:04:14.459Z,45.70
2019-03-21T13:06:44.153Z,45.20
2019-03-21T13:09:13.960Z,45.50
2019-03-21T13:11:43.664Z,45.90
2019-03-21T13:14:13.409Z,46.00
2019-03-21T13:16:43.204Z,45.60
2019-03-21T13:19:13.035Z,48.10
2019-03-21T13:21:42.787Z,51.50
2019-03-21T13:24:12.472Z,47.40
2019-03-21T13:26:42.269Z,48.50
2019-03-21T13:29:12.029Z,47.20
2019-03-21T13:31:41.851Z,49.10
2019-03-21T13:34:11.629Z,47.30
2019-03-21T13:36:41.365Z,48.40
2019-03-21T13:39:11.068Z,47.50
2019-03-21T13:41:40.918Z,46.50
2019-03-21T13:44:10.744Z,49.50
2019-03-21T13:46:40.413Z,48.30
2019-03-21T13:49:10.112Z,49.10
2019-03-21T13:51:39.906Z,48.20
2019-03-21T13:54:09.692Z,49.60
2019-03-21T13:56:39.483Z,50.80
2019-03-21T13:59:09.172Z,50.50
2019-03-21T14:01:38.884Z,50.50
2019-03-21T14:04:08.590Z,51.10
2019-03-21T14:06:38.326Z,49.50
2019-03-21T14:09:09.162Z,47.10
2019-03-21T14:11:38.896Z,50.40
2019-03-21T14:14:08.557Z,48.40
2019-03-21T14:16:38.405Z,48.80
2019-03-21T14:19:08.159Z,49.80
2019-03-21T14:21:37.985Z,48.70
2019-03-21T14:24:07.681Z,47.40
2019-03-21T14:26:37.492Z,49.30
2019-03-21T14:29:12.636Z,48.10
2019-03-21T14:31:38.733Z,46.60
2019-03-21T14:34:08.463Z,47.30
2019-03-21T14:36:38.256Z,46.20
2019-03-21T14:39:08.266Z,46.50
2019-03-21T14:41:37.997Z,49.50
2019-03-21T14:44:07.701Z,47.60
2019-03-21T14:46:37.512Z,46.90
2019-03-21T14:49:07.315Z,46.50
2019-03-21T14:51:37.075Z,46.60
2019-03-21T14:54:06.964Z,45.80
2019-03-21T14:56:36.659Z,46.10
2019-03-21T14:59:06.451Z,45.40
2019-03-21T15:01:36.191Z,46.70
2019-03-21T15:04:05.981Z,48.40
2019-03-21T15:06:35.743Z,46.00
2019-03-21T15:09:06.906Z,45.50
2019-03-21T15:11:36.721Z,46.40
2019-03-21T15:14:06.448Z,46.20
2019-03-21T15:16:36.180Z,45.70
2019-03-21T15:19:06.042Z,46.20
2019-03-21T15:21:35.862Z,45.80
2019-03-21T15:24:05.648Z,45.50
2019-03-21T15:26:35.393Z,45.90
2019-03-21T15:29:06.912Z,47.40
2019-03-21T15:31:36.595Z,46.50
2019-03-21T15:34:06.384Z,45.20
2019-03-21T15:36:36.111Z,47.80
2019-03-21T15:39:08.656Z,44.50
2019-03-21T15:41:39.040Z,44.20
2019-03-21T15:44:09.971Z,46.00
2019-03-21T15:46:39.636Z,44.20
2019-03-21T15:49:09.418Z,43.50
2019-03-21T15:51:39.097Z,45.10
2019-03-21T15:54:08.830Z,45.10
2019-03-21T15:56:38.732Z,45.40
2019-03-21T15:59:08.495Z,45.90
2019-03-21T16:01:38.244Z,47.20
2019-03-21T16:04:07.979Z,47.10
2019-03-21T16:06:37.747Z,47.00
2019-03-21T16:09:08.456Z,46.80
2019-03-21T16:11:38.338Z,48.30
2019-03-21T16:14:08.176Z,49.30
2019-03-21T16:16:37.945Z,47.00
2019-03-21T16:19:07.798Z,46.80
2019-03-21T16:21:37.534Z,45.10
2019-03-21T16:24:07.267Z,45.80
2019-03-21T16:26:37.065Z,45.20
2019-03-21T16:29:06.730Z,45.00
2019-03-21T16:31:36.422Z,45.70
2019-03-21T16:34:06.224Z,45.80
2019-03-21T16:36:54.819Z,47.20
2019-03-21T16:39:24.549Z,46.60
2019-03-21T16:41:54.357Z,46.30
2019-03-21T16:44:24.065Z,47.70
2019-03-21T16:46:53.816Z,49.30
2019-03-21T16:49:23.562Z,50.80
2019-03-21T16:51:53.421Z,51.10
2019-03-21T16:54:23.111Z,51.60
2019-03-21T16:56:52.944Z,51.00
2019-03-21T16:59:22.695Z,50.80
2019-03-21T17:01:52.427Z,50.70
2019-03-21T17:04:22.403Z,49.90
2019-03-21T17:06:54.126Z,50.70
2019-03-21T17:09:23.971Z,51.10
2019-03-21T17:11:53.725Z,51.30
2019-03-21T17:14:23.587Z,51.10
2019-03-21T17:16:53.414Z,52.70
2019-03-21T17:19:23.170Z,51.90
2019-03-21T17:21:52.951Z,52.70
2019-03-21T17:24:29.215Z,52.50
2019-03-21T17:26:54.202Z,53.10
2019-03-21T17:29:23.935Z,53.30
2019-03-21T17:31:54.845Z,52.60
2019-03-21T17:34:24.989Z,55.00
2019-03-21T17:36:54.756Z,54.50
2019-03-21T17:39:24.619Z,55.70
2019-03-21T17:41:54.316Z,54.80
2019-03-21T17:44:24.034Z,55.50
2019-03-21T17:46:53.729Z,55.40
2019-03-21T17:49:23.587Z,55.30
2019-03-21T17:51:53.369Z,55.20
2019-03-21T17:54:23.073Z,56.40
2019-03-21T17:56:52.820Z,56.40
2019-03-21T17:59:22.536Z,56.70
2019-03-21T18:01:52.292Z,57.80
2019-03-21T18:04:22.310Z,58.20
2019-03-21T18:06:52.132Z,57.30
2019-03-21T18:09:21.835Z,58.00
2019-03-21T18:11:51.524Z,57.70
2019-03-21T18:14:21.281Z,57.10
2019-03-21T18:16:50.950Z,57.20
2019-03-21T18:19:20.684Z,58.10
2019-03-21T18:21:50.420Z,58.30
2019-03-21T18:24:20.240Z,58.60
2019-03-21T18:26:49.961Z,61.00
2019-03-21T18:29:19.708Z,63.70
2019-03-21T18:31:49.389Z,64.20
2019-03-21T18:34:19.159Z,63.40
2019-03-21T18:36:48.964Z,64.70
2019-03-21T18:39:18.875Z,64.90
2019-03-21T18:41:48.762Z,64.00
2019-03-21T18:44:18.559Z,64.40
2019-03-21T18:46:48.427Z,65.60
2019-03-21T18:49:18.153Z,66.50
2019-03-21T18:51:48.048Z,66.40
2019-03-21T18:54:17.710Z,67.00
2019-03-21T18:56:47.460Z,67.70
2019-03-21T18:59:17.205Z,66.70
2019-03-21T19:01:57.856Z,68.70
2019-03-21T19:04:18.407Z,70.40
2019-03-21T19:06:48.347Z,69.40
2019-03-21T19:09:18.272Z,69.80
2019-03-21T19:11:48.102Z,70.70
2019-03-21T19:14:17.846Z,70.70
2019-03-21T19:16:47.620Z,70.90
2019-03-21T19:19:17.390Z,71.30
2019-03-21T19:21:47.103Z,70.80
2019-03-21T19:24:16.812Z,71.70
2019-03-21T19:26:46.649Z,73.40
2019-03-21T19:29:16.412Z,73.30
2019-03-21T19:31:46.260Z,73.90
2019-03-21T19:34:16.027Z,74.50
2019-03-21T19:36:45.800Z,72.90
2019-03-21T19:39:15.530Z,73.20
2019-03-21T19:41:45.398Z,74.40
2019-03-21T19:44:15.162Z,75.00
2019-03-21T19:46:45.006Z,76.70
2019-03-21T19:49:14.725Z,77.00
2019-03-21T19:51:44.473Z,77.10
2019-03-21T19:54:14.329Z,77.20
2019-03-21T19:56:44.064Z,76.80
2019-03-21T19:59:13.877Z,77.70
2019-03-21T20:01:43.657Z,77.30
2019-03-21T20:04:13.423Z,78.10
2019-03-21T20:06:43.214Z,78.80
2019-03-21T20:09:12.908Z,79.60
2019-03-21T20:11:42.590Z,80.70
2019-03-21T20:14:12.416Z,81.00
2019-03-21T20:16:42.196Z,82.70
2019-03-21T20:19:11.942Z,84.00
2019-03-21T20:21:47.716Z,84.50
2019-03-21T20:24:13.219Z,84.10
2019-03-21T20:26:43.009Z,84.50
2019-03-21T20:29:12.917Z,84.20
2019-03-21T20:31:42.724Z,84.40
2019-03-21T20:34:12.975Z,82.00
2019-03-21T20:36:43.033Z,81.50
2019-03-21T20:39:12.840Z,81.80
2019-03-21T20:41:42.522Z,82.20
2019-03-21T20:44:15.268Z,82.70
2019-03-21T20:46:43.657Z,84.70
2019-03-21T20:49:13.407Z,85.50
2019-03-21T20:51:43.122Z,86.00
2019-03-21T20:54:13.071Z,86.60
2019-03-21T20:56:42.837Z,87.40
2019-03-21T20:59:12.604Z,87.20
2019-03-21T21:01:42.342Z,87.10
2019-03-21T21:04:12.129Z,88.50
2019-03-21T21:06:41.868Z,89.00
2019-03-21T21:09:11.660Z,89.70
2019-03-21T21:11:41.387Z,89.70
2019-03-21T21:14:11.193Z,90.00
2019-03-21T21:16:40.868Z,89.80
2019-03-21T21:19:10.550Z,88.80
2019-03-21T21:21:40.304Z,88.70
2019-03-21T21:24:10.012Z,90.00
2019-03-21T21:26:39.916Z,90.50
2019-03-21T21:29:09.650Z,90.10
2019-03-21T21:31:39.540Z,90.30
2019-03-21T21:34:09.307Z,90.80
2019-03-21T21:36:39.056Z,91.10
2019-03-21T21:39:09.358Z,91.10
2019-03-21T21:41:39.152Z,90.70
2019-03-21T21:44:09.751Z,90.80
2019-03-21T21:46:39.567Z,90.70
2019-03-21T21:49:09.304Z,90.80
2019-03-21T21:51:39.057Z,91.00
2019-03-21T21:54:08.807Z,90.90
2019-03-21T21:56:38.515Z,91.70
2019-03-21T21:59:08.290Z,91.20
2019-03-21T22:01:37.953Z,91.20
2019-03-21T22:04:07.694Z,91.90
2019-03-21T22:06:37.459Z,92.20
2019-03-21T22:09:10.516Z,92.30
2019-03-21T22:11:40.252Z,92.30
2019-03-21T22:14:09.960Z,92.50
2019-03-21T22:16:39.721Z,92.80
2019-03-21T22:19:09.517Z,92.50
2019-03-21T22:21:39.324Z,92.40
2019-03-21T22:24:09.204Z,92.50
2019-03-21T22:26:38.966Z,92.70
2019-03-21T22:29:08.721Z,92.70
2019-03-21T22:31:38.424Z,92.90
2019-03-21T22:34:08.210Z,93.00
2019-03-21T22:36:48.886Z,93.40
2019-03-21T22:39:09.885Z,93.50
2019-03-21T22:41:39.684Z,93.40
2019-03-21T22:44:09.407Z,93.20
2019-03-21T22:46:39.101Z,93.40
2019-03-21T22:49:08.898Z,93.40
2019-03-21T22:51:38.335Z,93.80
2019-03-21T22:54:08.110Z,94.00
2019-03-21T22:56:41.496Z,94.30
2019-03-21T22:59:09.547Z,94.20
2019-03-21T23:01:39.288Z,94.70
2019-03-21T23:04:09.136Z,94.80
2019-03-21T23:06:38.872Z,95.10
2019-03-21T23:09:08.968Z,95.60
2019-03-21T23:11:38.936Z,95.20
2019-03-21T23:14:08.718Z,95.50
2019-03-21T23:16:38.408Z,95.90
2019-03-21T23:19:08.179Z,96.20
2019-03-21T23:21:37.974Z,96.60
2019-03-21T23:24:07.685Z,96.90
2019-03-21T23:26:37.412Z,97.00
2019-03-21T23:29:07.101Z,97.40
2019-03-21T23:31:36.965Z,97.30
2019-03-21T23:34:06.744Z,97.20
2019-03-21T23:36:36.565Z,97.10
2019-03-21T23:39:07.916Z,97.60
2019-03-21T23:41:37.597Z,97.60
2019-03-21T23:44:07.289Z,97.90
2019-03-21T23:46:37.041Z,98.20
2019-03-21T23:49:06.715Z,98.50
2019-03-21T23:51:37.955Z,98.60
2019-03-21T23:54:07.628Z,98.40
2019-03-21T23:56:37.462Z,98.80
2019-03-21T23:59:07.212Z,98.90
